EPWA/WAW METAR and TAF weather

Enter ICAO airport designator
Station Type Date Time Source
EPWA METAR 2022/06/26 07:30 UTC NOAA

EPWA 260730Z 14010KT CAVOK 26/13 Q1018 NOSIG


Station Type Date Time Source
EPWA Decoded METAR 2022/06/26 07:30 UTC NOAA

Warszawa-Okecie, Poland (EPWA) 52-10N 020-58E 107M
Jun 26, 2022 - 03:30 AM EDT / 2022.06.26 0730 UTC
Wind: from the SE (140 degrees) at 12 MPH (10 KT):0
Visibility: greater than 7 mile(s):0
Temperature: 78 F (26 C)
Dew Point: 55 F (13 C)
Relative Humidity: 44%
Pressure (altimeter): 30.06 in. Hg (1018 hPa)
ob: EPWA 260730Z 14010KT CAVOK 26/13 Q1018 NOSIG
cycle: 7

Station Type Date Time Source
EPWA TAF 2022/06/26 06:33 UTC NOAA

TAF EPWA 260530Z 2606/2706 13008KT CAVOK PROB40
TEMPO 2609/2617 13015G25KT

Example: see airport list